createdAt,value
2022-09-24T00:02:17.574Z,64.27
2022-09-24T00:04:45.582Z,64.25
2022-09-24T00:07:13.341Z,64.01
2022-09-24T00:09:41.270Z,64.32
2022-09-24T00:12:13.123Z,64.70
2022-09-24T00:14:51.160Z,64.72
2022-09-24T00:17:20.317Z,64.90
2022-09-24T00:19:48.084Z,64.64
2022-09-24T00:22:21.742Z,64.54
2022-09-24T00:25:07.262Z,64.31
2022-09-24T00:27:38.026Z,64.42
2022-09-24T00:30:06.715Z,64.24
2022-09-24T00:32:35.874Z,64.82
2022-09-24T00:35:07.676Z,64.53
2022-09-24T00:37:35.572Z,64.58
2022-09-24T00:40:03.505Z,64.63
2022-09-24T00:42:34.304Z,64.49
2022-09-24T00:45:04.607Z,64.66
2022-09-24T00:47:38.404Z,64.74
2022-09-24T00:50:14.150Z,65.39
2022-09-24T00:52:44.719Z,64.96
2022-09-24T00:55:14.128Z,65.50
2022-09-24T00:57:43.423Z,65.01
2022-09-24T01:00:12.811Z,65.09
2022-09-24T01:02:45.780Z,65.21
2022-09-24T01:05:13.634Z,65.05
2022-09-24T01:07:41.593Z,65.11
2022-09-24T01:10:10.299Z,65.01
2022-09-24T01:12:45.868Z,64.95
2022-09-24T01:15:23.243Z,64.88
2022-09-24T01:18:00.026Z,64.99
2022-09-24T01:21:10.682Z,64.70
2022-09-24T01:24:02.424Z,65.01
2022-09-24T01:27:07.736Z,64.95
2022-09-24T01:29:52.375Z,65.08
2022-09-24T01:32:31.620Z,65.03
2022-09-24T01:35:04.241Z,64.97
2022-09-24T01:37:35.376Z,64.93
2022-09-24T01:40:06.053Z,65.32
2022-09-24T01:42:35.368Z,65.14
2022-09-24T01:45:09.396Z,65.20
2022-09-24T01:47:39.942Z,65.36
2022-09-24T01:50:09.691Z,65.65
2022-09-24T01:52:44.343Z,65.44
2022-09-24T01:55:16.969Z,66.21
2022-09-24T01:57:47.909Z,65.99
2022-09-24T02:00:20.167Z,66.30
2022-09-24T02:02:57.940Z,66.54
2022-09-24T02:05:32.830Z,66.66
2022-09-24T02:08:15.461Z,66.71
2022-09-24T02:10:57.239Z,66.63
2022-09-24T02:13:27.858Z,66.82
2022-09-24T02:16:00.960Z,66.67
2022-09-24T02:18:35.906Z,66.60
2022-09-24T02:21:08.599Z,66.62
2022-09-24T02:23:39.374Z,66.86
2022-09-24T02:26:07.794Z,66.43
2022-09-24T02:28:35.879Z,66.82
2022-09-24T02:31:09.454Z,66.74
2022-09-24T02:34:01.975Z,66.99
2022-09-24T02:36:30.715Z,66.78
2022-09-24T02:38:58.678Z,67.38
2022-09-24T02:41:30.744Z,67.22
2022-09-24T02:44:01.943Z,67.63
2022-09-24T02:46:31.273Z,67.34
2022-09-24T02:49:01.269Z,67.56
2022-09-24T02:51:29.088Z,68.03
2022-09-24T02:54:04.036Z,68.45
2022-09-24T02:56:33.777Z,68.62
2022-09-24T02:59:02.736Z,68.39
2022-09-24T03:01:33.713Z,68.30
2022-09-24T03:04:02.019Z,68.58
2022-09-24T03:06:31.040Z,68.27
2022-09-24T03:08:59.051Z,68.50
2022-09-24T03:11:26.926Z,68.65
2022-09-24T03:13:54.860Z,68.55
2022-09-24T03:16:22.816Z,68.56
2022-09-24T03:18:52.070Z,68.62
2022-09-24T03:21:21.930Z,68.68
2022-09-24T03:23:59.326Z,69.11
2022-09-24T03:26:27.210Z,68.90
2022-09-24T03:28:55.129Z,68.96
2022-09-24T03:31:24.226Z,69.03
2022-09-24T03:33:53.498Z,68.93
2022-09-24T03:36:23.187Z,69.24
2022-09-24T03:38:54.291Z,69.17
2022-09-24T03:41:22.239Z,69.06
2022-09-24T03:43:50.708Z,69.24
2022-09-24T03:46:19.210Z,68.92
2022-09-24T03:48:47.372Z,68.94
2022-09-24T03:51:19.939Z,68.89
2022-09-24T03:53:48.095Z,69.06
2022-09-24T03:56:21.305Z,68.82
2022-09-24T03:58:49.100Z,69.01
2022-09-24T04:01:21.827Z,68.65
2022-09-24T04:03:50.720Z,68.26
2022-09-24T04:06:27.032Z,68.15
2022-09-24T04:08:56.685Z,68.44
2022-09-24T04:11:24.867Z,68.59
2022-09-24T04:13:52.887Z,68.84
2022-09-24T04:16:20.951Z,68.84
2022-09-24T04:18:48.902Z,69.04
2022-09-24T04:21:17.067Z,69.00
2022-09-24T04:23:45.034Z,68.60
2022-09-24T04:26:15.068Z,69.30
2022-09-24T04:28:43.069Z,69.17
2022-09-24T04:31:10.998Z,68.99
2022-09-24T04:33:39.061Z,69.03
2022-09-24T04:36:06.955Z,69.06
2022-09-24T04:38:34.886Z,69.14
2022-09-24T04:41:07.056Z,69.12
2022-09-24T04:43:36.959Z,69.36
2022-09-24T04:46:05.131Z,69.15
2022-09-24T04:48:34.586Z,69.11
2022-09-24T04:51:03.372Z,69.08
2022-09-24T04:53:32.856Z,69.31
2022-09-24T04:56:01.143Z,69.59
2022-09-24T04:58:29.419Z,69.31
2022-09-24T05:00:58.534Z,69.58
2022-09-24T05:03:26.271Z,69.39
2022-09-24T05:05:54.032Z,69.59
2022-09-24T05:08:21.922Z,69.67
2022-09-24T05:10:49.972Z,69.66
2022-09-24T05:13:17.816Z,70.01
2022-09-24T05:15:45.658Z,69.93
2022-09-24T05:18:14.806Z,69.83
2022-09-24T05:20:42.862Z,70.17
2022-09-24T05:23:10.676Z,69.85
2022-09-24T05:25:58.516Z,70.26
2022-09-24T05:28:25.327Z,70.37
2022-09-24T05:30:58.064Z,69.64
2022-09-24T05:33:27.635Z,69.58
2022-09-24T05:35:55.945Z,70.04
2022-09-24T05:38:23.810Z,69.61
2022-09-24T05:40:51.906Z,70.01
2022-09-24T05:43:20.371Z,69.89
2022-09-24T05:45:50.015Z,69.43
2022-09-24T05:48:17.893Z,69.66
2022-09-24T05:50:47.096Z,69.61
2022-09-24T05:53:15.316Z,69.53
2022-09-24T05:55:44.021Z,69.72
2022-09-24T05:58:12.709Z,69.40
2022-09-24T06:00:40.953Z,69.20
2022-09-24T06:03:12.916Z,69.19
2022-09-24T06:05:46.106Z,68.78
2022-09-24T06:08:16.483Z,68.49
2022-09-24T06:10:45.514Z,68.31
2022-09-24T06:13:14.123Z,68.41
2022-09-24T06:15:42.531Z,68.50
2022-09-24T06:18:12.626Z,68.74
2022-09-24T06:20:40.761Z,69.31
2022-09-24T06:23:08.829Z,68.96
2022-09-24T06:25:37.963Z,68.91
2022-09-24T06:28:06.197Z,68.98
2022-09-24T06:30:36.131Z,69.12
2022-09-24T06:33:05.577Z,69.03
2022-09-24T06:35:35.765Z,69.09
2022-09-24T06:38:03.795Z,69.33
2022-09-24T06:40:36.519Z,69.27
2022-09-24T06:43:07.537Z,69.43
2022-09-24T06:45:35.590Z,69.25
2022-09-24T06:48:05.425Z,69.01
2022-09-24T06:50:35.759Z,68.81
2022-09-24T06:53:06.666Z,68.96
2022-09-24T06:55:34.926Z,69.07
2022-09-24T06:58:04.541Z,69.22
2022-09-24T07:00:34.210Z,69.10
2022-09-24T07:03:02.065Z,69.22
2022-09-24T07:05:30.207Z,69.03
2022-09-24T07:07:58.405Z,68.89
2022-09-24T07:10:27.515Z,68.97
2022-09-24T07:12:55.662Z,68.96
2022-09-24T07:15:23.597Z,68.86
2022-09-24T07:17:57.684Z,68.75
2022-09-24T07:20:28.128Z,68.97
2022-09-24T07:22:56.860Z,69.23
2022-09-24T07:25:24.789Z,68.94
2022-09-24T07:27:52.860Z,68.88
2022-09-24T07:30:20.909Z,68.83
2022-09-24T07:32:50.653Z,68.67
2022-09-24T07:35:21.314Z,68.21
2022-09-24T07:37:49.205Z,68.52
2022-09-24T07:40:17.293Z,67.96
2022-09-24T07:42:48.862Z,67.51
2022-09-24T07:45:17.454Z,67.83
2022-09-24T07:47:45.296Z,68.06
2022-09-24T07:50:13.731Z,68.34
2022-09-24T07:52:42.972Z,67.66
2022-09-24T07:55:10.964Z,67.79
2022-09-24T07:57:39.366Z,67.59
2022-09-24T08:00:09.034Z,68.18
2022-09-24T08:02:39.393Z,68.19
2022-09-24T08:05:08.239Z,67.68
2022-09-24T08:07:36.073Z,67.93
2022-09-24T08:10:05.831Z,67.80
2022-09-24T08:12:33.977Z,67.72
2022-09-24T08:15:01.816Z,68.05
2022-09-24T08:17:29.551Z,67.72
2022-09-24T08:19:57.889Z,68.06
2022-09-24T08:22:26.330Z,67.66
2022-09-24T08:24:54.836Z,67.49
2022-09-24T08:27:25.184Z,67.25
2022-09-24T08:29:53.597Z,67.58
2022-09-24T08:32:21.494Z,67.29
2022-09-24T08:34:49.333Z,67.55
2022-09-24T08:37:17.257Z,67.26
2022-09-24T08:39:45.203Z,67.03
2022-09-24T08:42:17.851Z,66.95
2022-09-24T08:45:07.014Z,66.88
2022-09-24T08:47:39.245Z,66.98
2022-09-24T08:50:17.283Z,67.22
2022-09-24T08:52:59.520Z,67.91
2022-09-24T08:55:35.535Z,68.12
2022-09-24T08:58:14.895Z,68.19
2022-09-24T09:00:51.466Z,68.04
2022-09-24T09:03:26.553Z,68.05
2022-09-24T09:05:59.235Z,67.93
2022-09-24T09:11:31.041Z,67.77
2022-09-24T09:14:04.510Z,68.06
2022-09-24T09:16:42.619Z,67.67
2022-09-24T09:19:14.608Z,67.22
2022-09-24T09:21:45.079Z,66.52
2022-09-24T09:24:18.244Z,66.13
2022-09-24T09:26:50.627Z,66.36
2022-09-24T09:29:18.567Z,66.38
2022-09-24T09:32:01.432Z,66.34
2022-09-24T09:34:53.761Z,66.28
2022-09-24T09:37:30.431Z,66.07
2022-09-24T09:40:10.876Z,66.44
2022-09-24T09:42:40.510Z,66.48
2022-09-24T09:45:27.934Z,66.68
2022-09-24T09:47:58.657Z,66.95
2022-09-24T09:50:29.544Z,66.69
2022-09-24T09:52:57.944Z,67.06
2022-09-24T09:55:29.229Z,66.53
2022-09-24T09:58:10.655Z,66.97
2022-09-24T10:00:39.384Z,67.02
2022-09-24T10:03:23.340Z,66.93
2022-09-24T10:05:55.934Z,67.29
2022-09-24T10:08:25.731Z,67.01
2022-09-24T10:10:56.295Z,66.84
2022-09-24T10:13:24.933Z,66.51
2022-09-24T10:15:55.170Z,66.17
2022-09-24T10:18:32.898Z,66.32
2022-09-24T10:21:03.711Z,65.71
2022-09-24T10:23:36.650Z,65.59
2022-09-24T10:26:05.900Z,65.23
2022-09-24T10:28:53.583Z,64.88
2022-09-24T10:31:23.875Z,64.91
2022-09-24T10:33:56.229Z,64.95
2022-09-24T10:36:26.116Z,64.92
2022-09-24T10:39:05.200Z,65.11
2022-09-24T10:41:33.368Z,65.37
2022-09-24T10:44:08.338Z,65.89
2022-09-24T10:46:54.621Z,66.33
2022-09-24T10:49:41.342Z,65.92
2022-09-24T10:52:22.792Z,66.20
2022-09-24T10:55:04.112Z,66.32
2022-09-24T10:57:35.358Z,66.47
2022-09-24T11:00:10.869Z,66.68
2022-09-24T11:03:08.407Z,66.66
2022-09-24T11:05:43.681Z,66.80
2022-09-24T11:08:20.360Z,66.83
2022-09-24T11:11:05.676Z,66.85
2022-09-24T11:13:41.495Z,67.04
2022-09-24T11:16:39.189Z,66.44
2022-09-24T11:19:20.419Z,66.64
2022-09-24T11:22:04.115Z,67.25
2022-09-24T11:25:01.794Z,67.84
2022-09-24T11:27:57.829Z,68.14
2022-09-24T11:30:34.332Z,68.22
2022-09-24T11:33:22.118Z,67.99
2022-09-24T11:36:07.470Z,68.61
2022-09-24T11:38:43.669Z,68.14
2022-09-24T11:41:27.912Z,68.27
2022-09-24T11:44:13.668Z,68.52
2022-09-24T11:46:54.025Z,67.85
2022-09-24T11:49:43.287Z,67.83
2022-09-24T11:52:15.806Z,67.56
2022-09-24T11:54:54.000Z,67.40
2022-09-24T11:57:26.136Z,67.21
2022-09-24T12:00:00.655Z,67.44
2022-09-24T12:02:34.156Z,66.96
2022-09-24T12:05:07.478Z,67.28
2022-09-24T12:07:41.278Z,67.45
2022-09-24T12:10:26.046Z,67.04
2022-09-24T12:13:02.419Z,66.88
2022-09-24T12:15:40.981Z,66.98
2022-09-24T12:18:15.744Z,67.15
2022-09-24T12:20:50.361Z,67.03
2022-09-24T12:23:23.337Z,67.51
2022-09-24T12:25:53.712Z,67.89
2022-09-24T12:28:40.605Z,68.02
2022-09-24T12:31:33.868Z,68.09
2022-09-24T12:34:10.754Z,68.04
2022-09-24T12:36:56.930Z,68.35
2022-09-24T12:39:30.136Z,68.62
2022-09-24T12:42:04.263Z,68.62
2022-09-24T12:44:41.960Z,68.32
2022-09-24T12:47:18.531Z,68.80
2022-09-24T12:49:51.513Z,68.31
2022-09-24T12:52:25.103Z,68.73
2022-09-24T12:54:59.607Z,68.74
2022-09-24T12:57:31.802Z,69.22
2022-09-24T13:00:01.886Z,68.99
2022-09-24T13:02:33.111Z,68.92
2022-09-24T13:05:17.481Z,68.74
2022-09-24T13:07:57.641Z,68.81
2022-09-24T13:10:28.145Z,68.76
2022-09-24T13:12:59.923Z,68.35
2022-09-24T13:15:33.748Z,68.82
2022-09-24T13:18:05.172Z,68.63
2022-09-24T13:20:34.159Z,68.63
2022-09-24T13:23:15.838Z,68.44
2022-09-24T13:25:55.893Z,68.85
2022-09-24T13:28:37.799Z,69.02
2022-09-24T13:31:15.758Z,69.06
2022-09-24T13:33:46.365Z,69.42
2022-09-24T13:36:17.079Z,69.45
2022-09-24T13:38:54.749Z,69.49
2022-09-24T13:41:42.505Z,69.58
2022-09-24T13:44:20.535Z,69.40
2022-09-24T13:46:56.326Z,69.85
2022-09-24T13:49:27.206Z,69.78
2022-09-24T13:52:06.055Z,69.52
2022-09-24T13:54:37.617Z,69.72
2022-09-24T13:57:13.153Z,69.17
2022-09-24T13:59:42.440Z,69.17
2022-09-24T14:02:26.256Z,69.54
2022-09-24T14:04:58.870Z,69.56
2022-09-24T14:07:28.539Z,70.18
2022-09-24T14:10:04.480Z,70.26
2022-09-24T14:12:32.698Z,70.27
2022-09-24T14:15:04.438Z,70.81
2022-09-24T14:17:32.268Z,70.31
2022-09-24T14:20:00.395Z,70.48
2022-09-24T14:22:33.090Z,70.30
2022-09-24T14:25:07.464Z,70.23
2022-09-24T14:27:43.185Z,70.77
2022-09-24T14:30:20.615Z,70.49
2022-09-24T14:32:52.616Z,70.94
2022-09-24T14:35:31.975Z,70.59
2022-09-24T14:38:06.568Z,71.08
2022-09-24T14:40:43.864Z,70.74
2022-09-24T14:43:19.503Z,70.61
2022-09-24T14:45:50.691Z,71.10
2022-09-24T14:48:24.826Z,70.73
2022-09-24T14:50:52.546Z,71.71
2022-09-24T14:53:24.322Z,70.69
2022-09-24T14:55:52.734Z,70.67
2022-09-24T14:58:25.180Z,71.16
2022-09-24T15:00:57.401Z,70.99
2022-09-24T15:03:31.036Z,71.54
2022-09-24T15:06:18.704Z,71.46
2022-09-24T15:08:54.208Z,71.30
2022-09-24T15:11:27.738Z,71.31
2022-09-24T15:14:00.923Z,71.17
2022-09-24T15:16:36.232Z,70.81
2022-09-24T15:19:17.027Z,71.27
2022-09-24T15:21:45.646Z,71.48
2022-09-24T15:24:13.803Z,71.20
2022-09-24T15:26:44.147Z,71.22
2022-09-24T15:29:20.001Z,70.98
2022-09-24T15:31:50.181Z,71.53
2022-09-24T15:34:20.260Z,71.17
2022-09-24T15:36:48.915Z,71.36
2022-09-24T15:39:20.471Z,71.81
2022-09-24T15:41:48.482Z,71.67
2022-09-24T15:44:21.796Z,72.16
2022-09-24T15:46:52.046Z,72.15
2022-09-24T15:49:22.069Z,72.03
2022-09-24T15:51:51.756Z,72.30
2022-09-24T15:54:19.559Z,72.19
2022-09-24T15:56:52.393Z,72.05
2022-09-24T15:59:21.327Z,72.24
2022-09-24T16:01:53.060Z,72.51
2022-09-24T16:04:21.119Z,72.33
2022-09-24T16:06:49.566Z,72.44
2022-09-24T16:09:17.635Z,72.28
2022-09-24T16:11:45.601Z,72.43
2022-09-24T16:14:13.322Z,73.01
2022-09-24T16:16:41.080Z,72.69
2022-09-24T16:19:10.342Z,73.00
2022-09-24T16:21:38.441Z,73.16
2022-09-24T16:24:06.676Z,73.07
2022-09-24T16:26:35.559Z,73.17
2022-09-24T16:29:04.433Z,73.02
2022-09-24T16:31:32.630Z,73.39
2022-09-24T16:34:01.124Z,73.12
2022-09-24T16:36:30.355Z,73.25
2022-09-24T16:38:59.135Z,73.38
2022-09-24T16:41:27.184Z,73.56
2022-09-24T16:43:56.722Z,73.75
2022-09-24T16:46:25.117Z,73.65
2022-09-24T16:48:53.671Z,73.53
2022-09-24T16:51:22.220Z,73.67
2022-09-24T16:53:55.038Z,73.88
2022-09-24T16:56:23.575Z,73.83
2022-09-24T16:58:52.454Z,73.71
2022-09-24T17:01:22.251Z,73.80
2022-09-24T17:03:52.447Z,74.40
2022-09-24T17:06:23.287Z,74.16
2022-09-24T17:09:10.138Z,73.98
2022-09-24T17:11:40.917Z,74.21
2022-09-24T17:14:12.224Z,74.09
2022-09-24T17:16:40.704Z,74.05
2022-09-24T17:19:09.423Z,73.67
2022-09-24T17:21:38.800Z,73.49
2022-09-24T17:24:09.038Z,73.70
2022-09-24T17:26:39.693Z,73.69
2022-09-24T17:29:07.574Z,73.57
2022-09-24T17:31:35.538Z,74.19
2022-09-24T17:34:04.988Z,73.76
2022-09-24T17:36:34.496Z,73.86
2022-09-24T17:39:03.191Z,74.09
2022-09-24T17:41:32.481Z,73.97
2022-09-24T17:44:00.751Z,74.11
2022-09-24T17:46:29.891Z,73.96
2022-09-24T17:48:59.775Z,74.25
2022-09-24T17:51:30.380Z,74.33
2022-09-24T17:53:58.157Z,74.58
2022-09-24T17:56:27.773Z,74.66
2022-09-24T17:58:57.627Z,74.10
2022-09-24T18:01:28.784Z,74.26
2022-09-24T18:03:59.134Z,73.99
2022-09-24T18:06:33.250Z,74.02
2022-09-24T18:09:04.409Z,74.15
2022-09-24T18:11:34.655Z,74.22
2022-09-24T18:14:03.896Z,73.80
2022-09-24T18:16:33.571Z,73.86
2022-09-24T18:19:02.883Z,73.81
2022-09-24T18:21:31.145Z,73.94
2022-09-24T18:24:00.613Z,73.76
2022-09-24T18:26:32.495Z,73.46
2022-09-24T18:29:05.764Z,73.98
2022-09-24T18:31:34.729Z,73.56
2022-09-24T18:34:05.119Z,73.53
2022-09-24T18:36:34.626Z,73.58
2022-09-24T18:39:02.741Z,73.38
2022-09-24T18:41:31.791Z,73.76
2022-09-24T18:44:00.904Z,73.79
2022-09-24T18:46:33.057Z,73.57
2022-09-24T18:49:02.171Z,73.47
2022-09-24T18:51:31.707Z,73.40
2022-09-24T18:54:01.355Z,73.53
2022-09-24T18:56:29.634Z,73.81
2022-09-24T18:59:10.015Z,73.62
2022-09-24T19:02:34.765Z,73.40
2022-09-24T19:09:24.534Z,74.06
2022-09-24T19:12:53.640Z,73.87
2022-09-24T19:16:33.756Z,74.01
2022-09-24T19:20:23.094Z,74.39
2022-09-24T19:23:00.070Z,74.46
2022-09-24T19:25:28.636Z,74.06
2022-09-24T19:27:58.038Z,74.07
2022-09-24T19:30:26.121Z,73.85
2022-09-24T19:32:54.262Z,73.73
2022-09-24T19:35:22.410Z,73.70
2022-09-24T19:37:50.237Z,73.77
2022-09-24T19:40:19.813Z,73.72
2022-09-24T19:42:48.205Z,74.29
2022-09-24T19:45:16.571Z,74.08
2022-09-24T19:47:44.430Z,73.72
2022-09-24T19:50:17.588Z,74.27
2022-09-24T19:52:47.299Z,73.94
2022-09-24T19:55:15.851Z,74.12
2022-09-24T19:57:45.015Z,74.01
2022-09-24T20:00:14.176Z,74.08
2022-09-24T20:02:42.437Z,74.21
2022-09-24T20:05:10.241Z,74.26
2022-09-24T20:07:37.949Z,74.03
2022-09-24T20:10:07.671Z,74.27
2022-09-24T20:12:35.637Z,74.19
2022-09-24T20:15:05.461Z,74.21
2022-09-24T20:17:33.201Z,74.41
2022-09-24T20:20:02.622Z,74.36
2022-09-24T20:22:33.383Z,74.24
2022-09-24T20:25:01.357Z,74.35
2022-09-24T20:27:46.595Z,74.20
2022-09-24T20:30:15.929Z,74.25
2022-09-24T20:32:45.323Z,74.33
2022-09-24T20:35:13.389Z,74.14
2022-09-24T20:37:41.564Z,74.24
2022-09-24T20:40:10.631Z,74.09
2022-09-24T20:42:39.197Z,74.12
2022-09-24T20:45:08.722Z,73.73
2022-09-24T20:47:39.952Z,74.05
2022-09-24T20:50:08.836Z,74.04
2022-09-24T20:52:36.684Z,74.29
2022-09-24T20:55:05.303Z,74.36
2022-09-24T20:57:33.180Z,73.93
2022-09-24T21:00:01.150Z,74.22
2022-09-24T21:02:29.387Z,73.89
2022-09-24T21:04:58.883Z,74.07
2022-09-24T21:07:26.705Z,74.38
2022-09-24T21:09:54.859Z,74.62
2022-09-24T21:12:22.957Z,74.93
2022-09-24T21:14:52.195Z,75.12
2022-09-24T21:17:20.869Z,75.34
2022-09-24T21:19:48.954Z,75.40
2022-09-24T21:22:18.089Z,75.25
2022-09-24T21:24:46.085Z,74.86
2022-09-24T21:27:15.569Z,74.78
2022-09-24T21:29:43.484Z,74.73
2022-09-24T21:32:11.627Z,74.71
2022-09-24T21:34:40.000Z,74.50
2022-09-24T21:37:08.070Z,74.50
2022-09-24T21:39:37.477Z,74.31
2022-09-24T21:42:05.450Z,74.47
2022-09-24T21:44:33.942Z,74.63
2022-09-24T21:47:02.505Z,75.35
2022-09-24T21:49:30.193Z,75.46
2022-09-24T21:51:58.405Z,75.59
2022-09-24T21:54:26.481Z,76.01
2022-09-24T21:56:55.719Z,75.93
2022-09-24T21:59:41.014Z,76.08
2022-09-24T22:02:11.199Z,75.62
2022-09-24T22:04:39.332Z,75.75
2022-09-24T22:07:08.295Z,75.46
2022-09-24T22:09:36.188Z,75.66
2022-09-24T22:12:06.681Z,75.79
2022-09-24T22:14:35.167Z,75.90
2022-09-24T22:17:03.955Z,75.54
2022-09-24T22:19:32.243Z,75.53
2022-09-24T22:22:00.226Z,75.39
2022-09-24T22:24:28.375Z,75.43
2022-09-24T22:26:56.153Z,75.22
2022-09-24T22:29:25.307Z,75.39
2022-09-24T22:31:53.190Z,75.18
2022-09-24T22:34:38.749Z,75.45
2022-09-24T22:37:07.956Z,75.13
2022-09-24T22:39:36.216Z,75.15
2022-09-24T22:42:04.049Z,75.32
2022-09-24T22:44:33.444Z,75.19
2022-09-24T22:47:01.305Z,75.22
2022-09-24T22:49:29.232Z,74.87
2022-09-24T22:51:57.093Z,75.22
2022-09-24T22:54:25.304Z,75.04
2022-09-24T22:56:53.151Z,75.15
2022-09-24T22:59:23.965Z,75.39
2022-09-24T23:01:53.278Z,75.53
2022-09-24T23:04:21.152Z,75.46
2022-09-24T23:06:49.005Z,75.86
2022-09-24T23:09:17.013Z,75.92
2022-09-24T23:11:44.917Z,76.04
2022-09-24T23:14:14.796Z,75.63
2022-09-24T23:16:43.944Z,75.87
2022-09-24T23:19:16.207Z,76.46
2022-09-24T23:21:44.591Z,76.47
2022-09-24T23:24:18.342Z,76.48
2022-09-24T23:26:46.982Z,76.50
2022-09-24T23:29:15.486Z,76.70
2022-09-24T23:31:43.535Z,76.52
2022-09-24T23:34:14.830Z,76.31
2022-09-24T23:36:50.207Z,76.30
2022-09-24T23:39:17.963Z,76.04
2022-09-24T23:41:46.080Z,75.87
2022-09-24T23:44:13.979Z,75.92
2022-09-24T23:46:45.932Z,75.79
2022-09-24T23:49:15.266Z,75.88
2022-09-24T23:51:44.102Z,76.06
2022-09-24T23:54:12.061Z,76.29
2022-09-24T23:56:40.127Z,76.25
2022-09-24T23:59:11.176Z,76.66
